sensor_id;sensor_type;location;lat;lon;timestamp;pressure;altitude;pressure_sealevel;temperature;humidity
5703;BME280;2876;51.738;10.050;2022-08-18T00:00:25;98875.97;;;20.17;76.61
5703;BME280;2876;51.738;10.050;2022-08-18T00:06:28;98869.44;;;19.97;78.21
5703;BME280;2876;51.738;10.050;2022-08-18T00:12:36;98871.91;;;20.04;78.71
5703;BME280;2876;51.738;10.050;2022-08-18T00:18:38;98871.09;;;20.04;79.48
5703;BME280;2876;51.738;10.050;2022-08-18T00:24:41;98880.03;;;20.35;78.26
5703;BME280;2876;51.738;10.050;2022-08-18T00:30:49;98874.06;;;20.07;79.58
5703;BME280;2876;51.738;10.050;2022-08-18T00:36:55;98879.25;;;20.14;81.02
5703;BME280;2876;51.738;10.050;2022-08-18T00:43:03;98875.13;;;20.16;81.20
5703;BME280;2876;51.738;10.050;2022-08-18T00:49:05;98895.31;;;20.36;82.17
5703;BME280;2876;51.738;10.050;2022-08-18T00:55:07;98889.28;;;20.34;81.88
5703;BME280;2876;51.738;10.050;2022-08-18T01:01:11;98887.38;;;20.44;82.09
5703;BME280;2876;51.738;10.050;2022-08-18T01:07:19;98890.69;;;20.26;82.63
5703;BME280;2876;51.738;10.050;2022-08-18T01:13:30;98887.94;;;20.16;82.97
5703;BME280;2876;51.738;10.050;2022-08-18T01:19:34;98896.66;;;19.97;82.90
5703;BME280;2876;51.738;10.050;2022-08-18T01:25:55;98904.53;;;19.84;83.43
5703;BME280;2876;51.738;10.050;2022-08-18T01:32:00;98904.25;;;19.75;83.05
5703;BME280;2876;51.738;10.050;2022-08-18T01:38:05;98905.00;;;19.50;86.13
5703;BME280;2876;51.738;10.050;2022-08-18T01:44:07;98899.03;;;19.58;87.21
5703;BME280;2876;51.738;10.050;2022-08-18T01:50:12;98904.78;;;19.62;86.18
5703;BME280;2876;51.738;10.050;2022-08-18T01:56:14;98898.47;;;19.41;86.13
5703;BME280;2876;51.738;10.050;2022-08-18T02:02:24;98895.66;;;19.20;87.59
5703;BME280;2876;51.738;10.050;2022-08-18T02:08:28;98891.88;;;19.26;87.30
5703;BME280;2876;51.738;10.050;2022-08-18T02:14:33;98895.13;;;19.18;86.65
5703;BME280;2876;51.738;10.050;2022-08-18T02:20:35;98885.19;;;18.82;87.47
5703;BME280;2876;51.738;10.050;2022-08-18T02:26:38;98891.66;;;18.75;88.17
5703;BME280;2876;51.738;10.050;2022-08-18T02:32:41;98880.69;;;18.60;90.19
5703;BME280;2876;51.738;10.050;2022-08-18T02:38:43;98898.38;;;18.68;91.43
5703;BME280;2876;51.738;10.050;2022-08-18T02:44:57;98899.25;;;18.73;91.37
5703;BME280;2876;51.738;10.050;2022-08-18T02:51:14;98896.25;;;18.70;90.12
5703;BME280;2876;51.738;10.050;2022-08-18T02:57:17;98895.63;;;18.58;90.12
5703;BME280;2876;51.738;10.050;2022-08-18T03:03:19;98896.59;;;18.41;89.94
5703;BME280;2876;51.738;10.050;2022-08-18T03:09:21;98896.88;;;18.40;89.80
5703;BME280;2876;51.738;10.050;2022-08-18T03:15:23;98895.66;;;18.25;91.66
5703;BME280;2876;51.738;10.050;2022-08-18T03:21:30;98903.25;;;18.23;91.25
5703;BME280;2876;51.738;10.050;2022-08-18T03:27:32;98910.47;;;18.08;91.45
5703;BME280;2876;51.738;10.050;2022-08-18T03:33:35;98909.63;;;18.07;92.92
5703;BME280;2876;51.738;10.050;2022-08-18T03:39:37;98902.25;;;18.03;93.99
5703;BME280;2876;51.738;10.050;2022-08-18T03:45:39;98919.44;;;18.08;93.68
5703;BME280;2876;51.738;10.050;2022-08-18T03:51:43;98908.19;;;17.94;94.26
5703;BME280;2876;51.738;10.050;2022-08-18T03:57:47;98916.25;;;17.89;96.52
5703;BME280;2876;51.738;10.050;2022-08-18T04:03:55;98921.84;;;18.05;95.22
5703;BME280;2876;51.738;10.050;2022-08-18T04:09:58;98922.16;;;18.08;94.10
5703;BME280;2876;51.738;10.050;2022-08-18T04:16:00;98915.31;;;18.06;92.19
5703;BME280;2876;51.738;10.050;2022-08-18T04:22:03;98918.16;;;17.89;89.08
5703;BME280;2876;51.738;10.050;2022-08-18T04:28:05;98914.09;;;17.64;89.22
5703;BME280;2876;51.738;10.050;2022-08-18T04:34:07;98907.63;;;17.43;89.77
5703;BME280;2876;51.738;10.050;2022-08-18T04:40:10;98912.13;;;17.33;92.84
5703;BME280;2876;51.738;10.050;2022-08-18T04:46:15;98906.34;;;17.24;94.72
5703;BME280;2876;51.738;10.050;2022-08-18T04:52:18;98915.75;;;17.43;95.46
5703;BME280;2876;51.738;10.050;2022-08-18T04:58:42;98929.91;;;17.72;95.34
5703;BME280;2876;51.738;10.050;2022-08-18T05:04:45;98934.31;;;18.06;93.87
5703;BME280;2876;51.738;10.050;2022-08-18T05:10:53;98934.94;;;18.13;94.58
5703;BME280;2876;51.738;10.050;2022-08-18T05:17:03;98938.41;;;18.40;93.53
5703;BME280;2876;51.738;10.050;2022-08-18T05:23:05;98953.50;;;18.63;93.41
5703;BME280;2876;51.738;10.050;2022-08-18T05:29:07;98961.28;;;18.87;92.88
5703;BME280;2876;51.738;10.050;2022-08-18T05:35:25;98957.38;;;19.20;92.48
5703;BME280;2876;51.738;10.050;2022-08-18T05:41:41;98952.06;;;19.45;91.89
5703;BME280;2876;51.738;10.050;2022-08-18T05:47:44;98943.22;;;20.11;86.16
5703;BME280;2876;51.738;10.050;2022-08-18T05:53:47;98947.56;;;19.97;82.29
5703;BME280;2876;51.738;10.050;2022-08-18T06:00:08;98945.66;;;20.02;80.90
5703;BME280;2876;51.738;10.050;2022-08-18T06:06:19;98937.25;;;20.24;81.14
5703;BME280;2876;51.738;10.050;2022-08-18T06:12:47;98942.13;;;20.38;79.24
5703;BME280;2876;51.738;10.050;2022-08-18T06:19:26;98936.97;;;20.31;80.47
5703;BME280;2876;51.738;10.050;2022-08-18T06:25:53;98933.97;;;20.48;80.75
5703;BME280;2876;51.738;10.050;2022-08-18T06:32:14;98955.72;;;20.84;80.12
5703;BME280;2876;51.738;10.050;2022-08-18T06:38:57;98971.25;;;21.03;80.44
5703;BME280;2876;51.738;10.050;2022-08-18T06:45:08;98971.59;;;21.57;79.71
5703;BME280;2876;51.738;10.050;2022-08-18T06:51:19;98974.47;;;21.86;80.18
5703;BME280;2876;51.738;10.050;2022-08-18T06:57:57;98974.53;;;22.20;78.60
5703;BME280;2876;51.738;10.050;2022-08-18T07:04:00;98979.47;;;22.52;76.88
5703;BME280;2876;51.738;10.050;2022-08-18T07:22:56;98996.66;;;23.40;73.90
5703;BME280;2876;51.738;10.050;2022-08-18T07:29:13;98994.91;;;24.11;72.67
5703;BME280;2876;51.738;10.050;2022-08-18T07:35:29;98998.03;;;24.23;71.80
5703;BME280;2876;51.738;10.050;2022-08-18T07:41:50;98990.41;;;23.82;73.40
5703;BME280;2876;51.738;10.050;2022-08-18T08:20:42;98973.84;;;24.25;70.89
5703;BME280;2876;51.738;10.050;2022-08-18T08:33:46;98987.06;;;25.21;68.13
5703;BME280;2876;51.738;10.050;2022-08-18T08:40:12;99014.94;;;24.95;69.24
5703;BME280;2876;51.738;10.050;2022-08-18T08:46:22;98998.97;;;24.97;68.73
5703;BME280;2876;51.738;10.050;2022-08-18T08:52:56;98998.75;;;25.40;68.50
5703;BME280;2876;51.738;10.050;2022-08-18T08:59:08;98992.47;;;26.03;65.67
5703;BME280;2876;51.738;10.050;2022-08-18T09:05:20;98997.81;;;25.86;64.68
5703;BME280;2876;51.738;10.050;2022-08-18T09:11:56;99012.28;;;25.50;66.69
5703;BME280;2876;51.738;10.050;2022-08-18T09:19:00;99017.78;;;24.90;68.40
5703;BME280;2876;51.738;10.050;2022-08-18T09:31:39;99014.44;;;24.93;67.54
5703;BME280;2876;51.738;10.050;2022-08-18T09:37:59;99020.78;;;24.75;68.58
5703;BME280;2876;51.738;10.050;2022-08-18T09:51:19;99041.00;;;24.46;69.47
5703;BME280;2876;51.738;10.050;2022-08-18T09:57:28;99042.19;;;24.92;66.96
5703;BME280;2876;51.738;10.050;2022-08-18T10:03:34;99040.38;;;25.01;65.88
5703;BME280;2876;51.738;10.050;2022-08-18T10:10:08;99049.94;;;25.03;66.04
5703;BME280;2876;51.738;10.050;2022-08-18T10:49:31;99045.22;;;25.37;64.16
5703;BME280;2876;51.738;10.050;2022-08-18T11:02:34;99038.22;;;25.30;64.77
5703;BME280;2876;51.738;10.050;2022-08-18T11:08:46;99028.25;;;25.35;64.52
5703;BME280;2876;51.738;10.050;2022-08-18T11:15:12;99020.09;;;25.16;65.29
5703;BME280;2876;51.738;10.050;2022-08-18T11:27:46;99020.25;;;25.05;66.27
5703;BME280;2876;51.738;10.050;2022-08-18T11:33:49;99022.59;;;24.98;66.71
5703;BME280;2876;51.738;10.050;2022-08-18T11:46:39;98992.69;;;24.97;69.58
5703;BME280;2876;51.738;10.050;2022-08-18T11:52:51;98987.94;;;25.16;70.81
5703;BME280;2876;51.738;10.050;2022-08-18T12:05:02;98964.75;;;25.64;70.18
5703;BME280;2876;51.738;10.050;2022-08-18T12:11:25;98968.22;;;25.55;73.01
5703;BME280;2876;51.738;10.050;2022-08-18T12:17:30;98973.41;;;25.57;72.26
5703;BME280;2876;51.738;10.050;2022-08-18T12:23:36;98977.34;;;25.65;72.69
5703;BME280;2876;51.738;10.050;2022-08-18T12:29:52;98996.31;;;25.80;71.58
5703;BME280;2876;51.738;10.050;2022-08-18T12:35:56;98978.44;;;26.27;68.68
5703;BME280;2876;51.738;10.050;2022-08-18T12:42:00;98975.25;;;26.56;65.07
5703;BME280;2876;51.738;10.050;2022-08-18T12:48:03;98961.69;;;27.14;63.38
5703;BME280;2876;51.738;10.050;2022-08-18T12:54:07;98972.91;;;27.83;63.17
5703;BME280;2876;51.738;10.050;2022-08-18T13:00:14;98999.13;;;27.63;63.11
5703;BME280;2876;51.738;10.050;2022-08-18T13:06:19;98982.50;;;27.06;63.92
5703;BME280;2876;51.738;10.050;2022-08-18T13:12:22;98971.16;;;26.99;67.35
5703;BME280;2876;51.738;10.050;2022-08-18T13:18:26;98961.56;;;26.96;67.35
5703;BME280;2876;51.738;10.050;2022-08-18T13:24:30;98973.44;;;27.45;66.32
5703;BME280;2876;51.738;10.050;2022-08-18T13:30:33;98949.16;;;27.08;66.00
5703;BME280;2876;51.738;10.050;2022-08-18T13:36:36;98957.38;;;26.68;67.32
5703;BME280;2876;51.738;10.050;2022-08-18T13:42:49;98944.25;;;26.20;69.41
5703;BME280;2876;51.738;10.050;2022-08-18T13:48:52;98935.50;;;26.18;68.05
5703;BME280;2876;51.738;10.050;2022-08-18T13:54:54;98932.59;;;25.78;69.00
5703;BME280;2876;51.738;10.050;2022-08-18T14:00:59;98927.41;;;25.63;67.74
5703;BME280;2876;51.738;10.050;2022-08-18T14:07:23;98929.59;;;25.11;70.62
5703;BME280;2876;51.738;10.050;2022-08-18T14:13:30;98918.78;;;25.00;71.67
5703;BME280;2876;51.738;10.050;2022-08-18T14:19:44;98906.09;;;24.77;72.96
5703;BME280;2876;51.738;10.050;2022-08-18T14:26:11;98894.38;;;24.58;73.36
5703;BME280;2876;51.738;10.050;2022-08-18T14:32:40;98895.66;;;24.46;73.59
5703;BME280;2876;51.738;10.050;2022-08-18T14:38:50;98881.91;;;24.33;74.30
5703;BME280;2876;51.738;10.050;2022-08-18T14:44:52;98884.28;;;24.39;75.24
5703;BME280;2876;51.738;10.050;2022-08-18T14:51:15;98903.00;;;24.65;74.31
5703;BME280;2876;51.738;10.050;2022-08-18T14:57:17;98901.84;;;24.85;74.03
5703;BME280;2876;51.738;10.050;2022-08-18T15:03:23;98888.94;;;25.13;73.00
5703;BME280;2876;51.738;10.050;2022-08-18T15:09:32;98893.50;;;24.90;75.29
5703;BME280;2876;51.738;10.050;2022-08-18T15:15:35;98898.34;;;24.93;74.59
5703;BME280;2876;51.738;10.050;2022-08-18T15:21:52;98897.31;;;24.61;75.36
5703;BME280;2876;51.738;10.050;2022-08-18T15:28:21;98888.50;;;24.32;76.42
5703;BME280;2876;51.738;10.050;2022-08-18T15:34:25;98890.59;;;24.21;77.27
5703;BME280;2876;51.738;10.050;2022-08-18T15:40:28;98888.91;;;24.06;78.02
5703;BME280;2876;51.738;10.050;2022-08-18T15:46:42;98885.69;;;24.04;78.07
5703;BME280;2876;51.738;10.050;2022-08-18T15:53:03;98879.84;;;23.92;78.08
5703;BME280;2876;51.738;10.050;2022-08-18T15:59:08;98873.34;;;24.20;76.88
5703;BME280;2876;51.738;10.050;2022-08-18T16:05:11;98877.97;;;24.39;75.50
5703;BME280;2876;51.738;10.050;2022-08-18T16:11:15;98876.81;;;24.26;74.89
5703;BME280;2876;51.738;10.050;2022-08-18T16:17:30;98874.31;;;24.11;74.95
5703;BME280;2876;51.738;10.050;2022-08-18T16:23:32;98891.03;;;23.95;75.30
5703;BME280;2876;51.738;10.050;2022-08-18T16:29:38;98893.63;;;23.87;75.06
5703;BME280;2876;51.738;10.050;2022-08-18T16:35:40;98904.41;;;23.40;76.20
5703;BME280;2876;51.738;10.050;2022-08-18T16:41:46;98886.13;;;23.36;75.88
5703;BME280;2876;51.738;10.050;2022-08-18T16:47:48;98895.22;;;23.50;76.01
5703;BME280;2876;51.738;10.050;2022-08-18T16:53:50;98883.00;;;23.61;75.78
5703;BME280;2876;51.738;10.050;2022-08-18T16:59:53;98883.81;;;23.67;76.27
5703;BME280;2876;51.738;10.050;2022-08-18T17:06:17;98878.00;;;23.87;76.08
5703;BME280;2876;51.738;10.050;2022-08-18T17:12:19;98875.84;;;24.03;75.58
5703;BME280;2876;51.738;10.050;2022-08-18T17:18:22;98876.53;;;23.76;75.84
5703;BME280;2876;51.738;10.050;2022-08-18T17:24:25;98873.81;;;23.76;75.81
5703;BME280;2876;51.738;10.050;2022-08-18T17:30:38;98871.88;;;23.76;75.79
5703;BME280;2876;51.738;10.050;2022-08-18T17:36:51;98874.16;;;23.69;75.70
5703;BME280;2876;51.738;10.050;2022-08-18T17:42:55;98868.91;;;23.73;75.95
5703;BME280;2876;51.738;10.050;2022-08-18T17:49:24;98874.47;;;23.68;75.90
5703;BME280;2876;51.738;10.050;2022-08-18T17:55:55;98873.72;;;23.62;75.89
5703;BME280;2876;51.738;10.050;2022-08-18T18:09:27;98875.25;;;23.49;76.03
5703;BME280;2876;51.738;10.050;2022-08-18T18:15:31;98885.16;;;23.26;77.07
5703;BME280;2876;51.738;10.050;2022-08-18T18:21:35;98873.97;;;23.23;77.39
5703;BME280;2876;51.738;10.050;2022-08-18T18:27:57;98880.41;;;23.13;77.93
5703;BME280;2876;51.738;10.050;2022-08-18T18:34:06;98886.09;;;22.93;79.17
5703;BME280;2876;51.738;10.050;2022-08-18T18:40:41;98895.81;;;22.80;80.32
5703;BME280;2876;51.738;10.050;2022-08-18T18:47:07;98895.25;;;22.54;81.29
5703;BME280;2876;51.738;10.050;2022-08-18T19:12:21;98904.31;;;22.20;82.69
5703;BME280;2876;51.738;10.050;2022-08-18T19:18:33;98901.63;;;22.10;83.09
5703;BME280;2876;51.738;10.050;2022-08-18T19:24:50;98909.00;;;22.10;82.47
5703;BME280;2876;51.738;10.050;2022-08-18T19:30:57;98906.28;;;22.10;82.34
5703;BME280;2876;51.738;10.050;2022-08-18T19:44:13;98898.44;;;21.98;81.94
5703;BME280;2876;51.738;10.050;2022-08-18T19:56:23;98905.69;;;21.78;83.24
5703;BME280;2876;51.738;10.050;2022-08-18T20:09:44;98896.22;;;21.66;83.85
5703;BME280;2876;51.738;10.050;2022-08-18T20:22:50;98905.69;;;21.39;84.45
5703;BME280;2876;51.738;10.050;2022-08-18T20:28:57;98912.22;;;21.33;85.32
5703;BME280;2876;51.738;10.050;2022-08-18T20:35:24;98902.22;;;21.13;85.78
5703;BME280;2876;51.738;10.050;2022-08-18T20:41:40;98891.59;;;21.07;86.47
5703;BME280;2876;51.738;10.050;2022-08-18T21:00:35;98908.25;;;21.00;87.69
5703;BME280;2876;51.738;10.050;2022-08-18T21:06:41;98905.53;;;21.00;88.34
5703;BME280;2876;51.738;10.050;2022-08-18T21:13:00;98904.63;;;21.20;88.24
5703;BME280;2876;51.738;10.050;2022-08-18T21:19:27;98896.50;;;21.05;89.27
5703;BME280;2876;51.738;10.050;2022-08-18T21:25:29;98892.13;;;21.14;89.54
5703;BME280;2876;51.738;10.050;2022-08-18T21:31:43;98898.16;;;21.00;90.11
5703;BME280;2876;51.738;10.050;2022-08-18T21:44:32;98895.09;;;21.17;89.69
5703;BME280;2876;51.738;10.050;2022-08-18T21:50:35;98902.66;;;21.41;88.76
5703;BME280;2876;51.738;10.050;2022-08-18T21:56:37;98892.66;;;21.11;89.93
5703;BME280;2876;51.738;10.050;2022-08-18T22:02:40;98901.91;;;21.15;89.71
5703;BME280;2876;51.738;10.050;2022-08-18T22:21:40;98905.78;;;21.09;92.35
5703;BME280;2876;51.738;10.050;2022-08-18T22:27:48;98926.38;;;21.45;91.31
5703;BME280;2876;51.738;10.050;2022-08-18T22:33:54;98939.22;;;21.35;91.93
5703;BME280;2876;51.738;10.050;2022-08-18T22:40:07;98949.00;;;21.46;91.41
5703;BME280;2876;51.738;10.050;2022-08-18T22:46:11;98971.97;;;21.35;92.18
5703;BME280;2876;51.738;10.050;2022-08-18T22:52:41;98979.91;;;21.36;92.08
5703;BME280;2876;51.738;10.050;2022-08-18T22:58:43;98977.03;;;21.67;90.78
5703;BME280;2876;51.738;10.050;2022-08-18T23:04:45;98963.44;;;21.51;91.57
5703;BME280;2876;51.738;10.050;2022-08-18T23:10:47;98939.72;;;21.47;91.80
5703;BME280;2876;51.738;10.050;2022-08-18T23:16:50;98937.75;;;21.63;91.02
5703;BME280;2876;51.738;10.050;2022-08-18T23:22:52;98922.25;;;21.48;92.08
5703;BME280;2876;51.738;10.050;2022-08-18T23:28:54;98911.94;;;21.40;92.73
5703;BME280;2876;51.738;10.050;2022-08-18T23:34:56;98912.53;;;21.26;94.23
5703;BME280;2876;51.738;10.050;2022-08-18T23:40:58;98902.94;;;21.34;93.88
5703;BME280;2876;51.738;10.050;2022-08-18T23:47:00;98918.22;;;21.25;94.58
5703;BME280;2876;51.738;10.050;2022-08-18T23:53:02;98912.53;;;21.16;95.18
5703;BME280;2876;51.738;10.050;2022-08-18T23:59:06;98928.69;;;21.02;95.53
